createdAt,value
2017-04-15T00:00:26.928Z,6.95
2017-04-15T00:01:27.458Z,6.97
2017-04-15T00:02:28.134Z,6.95
2017-04-15T00:03:28.520Z,6.98
2017-04-15T00:04:29.046Z,6.97
2017-04-15T00:05:29.603Z,6.98
2017-04-15T00:06:30.255Z,7.00
2017-04-15T00:07:30.643Z,7.00
2017-04-15T00:08:31.171Z,7.02
2017-04-15T00:09:31.699Z,7.07
2017-04-15T00:10:32.231Z,7.05
2017-04-15T00:11:32.773Z,7.05
2017-04-15T00:12:33.307Z,7.04
2017-04-15T00:13:33.825Z,7.04
2017-04-15T00:14:34.355Z,7.02
2017-04-15T00:15:34.898Z,7.02
2017-04-15T00:16:35.415Z,6.98
2017-04-15T00:17:35.944Z,6.97
2017-04-15T00:18:36.477Z,6.93
2017-04-15T00:19:37.007Z,6.91
2017-04-15T00:20:37.539Z,6.91
2017-04-15T00:21:38.070Z,6.91
2017-04-15T00:22:38.598Z,6.93
2017-04-15T00:23:39.277Z,6.91
2017-04-15T00:24:39.659Z,6.87
2017-04-15T00:25:40.189Z,6.81
2017-04-15T00:26:40.716Z,6.75
2017-04-15T00:27:41.250Z,6.70
2017-04-15T00:28:41.784Z,6.60
2017-04-15T00:29:42.320Z,6.59
2017-04-15T00:30:42.855Z,6.51
2017-04-15T00:31:43.386Z,6.44
2017-04-15T00:32:43.921Z,6.34
2017-04-15T00:33:44.451Z,6.27
2017-04-15T00:34:44.982Z,6.22
2017-04-15T00:35:45.515Z,6.12
2017-04-15T00:36:46.040Z,6.03
2017-04-15T00:37:46.577Z,5.95
2017-04-15T00:38:47.107Z,5.88
2017-04-15T00:39:47.631Z,5.81
2017-04-15T00:40:48.161Z,5.74
2017-04-15T00:41:48.691Z,5.73
2017-04-15T00:42:49.221Z,5.74
2017-04-15T00:43:49.749Z,5.68
2017-04-15T00:44:50.284Z,5.68
2017-04-15T00:45:50.811Z,5.73
2017-04-15T00:46:51.341Z,5.70
2017-04-15T00:47:51.872Z,5.64
2017-04-15T00:48:52.407Z,5.59
2017-04-15T00:49:52.935Z,5.52
2017-04-15T00:50:53.467Z,5.46
2017-04-15T00:51:53.994Z,5.44
2017-04-15T00:52:54.525Z,5.45
2017-04-15T00:53:55.051Z,5.42
2017-04-15T00:54:55.600Z,5.35
2017-04-15T00:55:56.116Z,5.30
2017-04-15T00:56:56.648Z,5.25
2017-04-15T00:57:57.324Z,5.19
2017-04-15T00:58:57.715Z,5.16
2017-04-15T00:59:58.385Z,5.10
2017-04-15T01:00:58.764Z,5.06
2017-04-15T01:01:59.293Z,5.00
2017-04-15T01:02:59.824Z,4.95
2017-04-15T01:04:00.351Z,4.92
2017-04-15T01:05:00.879Z,4.88
2017-04-15T01:06:01.410Z,4.84
2017-04-15T01:07:01.942Z,4.77
2017-04-15T01:08:02.625Z,4.71
2017-04-15T01:09:03.006Z,4.67
2017-04-15T01:10:03.543Z,4.63
2017-04-15T01:11:04.079Z,4.64
2017-04-15T01:12:04.611Z,4.62
2017-04-15T01:13:05.144Z,4.60
2017-04-15T01:14:05.679Z,4.57
2017-04-15T01:15:06.207Z,4.54
2017-04-15T01:16:06.737Z,4.55
2017-04-15T01:17:07.269Z,4.57
2017-04-15T01:18:07.809Z,4.54
2017-04-15T01:19:08.329Z,4.55
2017-04-15T01:20:08.862Z,4.55
2017-04-15T01:21:09.395Z,4.52
2017-04-15T01:22:09.920Z,4.52
2017-04-15T01:23:10.456Z,4.54
2017-04-15T01:24:10.981Z,4.52
2017-04-15T01:25:11.509Z,4.55
2017-04-15T01:26:12.041Z,4.57
2017-04-15T01:27:12.570Z,4.63
2017-04-15T01:28:13.101Z,4.66
2017-04-15T01:29:13.630Z,4.67
2017-04-15T01:30:14.307Z,4.73
2017-04-15T01:31:14.687Z,4.75
2017-04-15T01:32:15.366Z,4.80
2017-04-15T01:33:15.746Z,4.82
2017-04-15T01:34:16.432Z,4.87
2017-04-15T01:35:16.809Z,4.89
2017-04-15T01:36:17.340Z,4.89
2017-04-15T01:37:17.870Z,4.93
2017-04-15T01:38:18.400Z,5.02
2017-04-15T01:39:18.932Z,5.09
2017-04-15T01:40:19.463Z,5.11
2017-04-15T01:41:19.986Z,5.10
2017-04-15T01:42:20.515Z,5.07
2017-04-15T01:43:21.046Z,5.03
2017-04-15T01:44:21.576Z,5.03
2017-04-15T01:45:22.111Z,4.98
2017-04-15T01:46:22.636Z,4.92
2017-04-15T01:47:23.169Z,4.88
2017-04-15T01:48:23.848Z,4.84
2017-04-15T01:49:24.230Z,4.78
2017-04-15T01:50:24.764Z,4.75
2017-04-15T01:51:25.293Z,4.69
2017-04-15T01:52:25.828Z,4.66
2017-04-15T01:53:26.367Z,4.70
2017-04-15T01:54:26.906Z,4.70
2017-04-15T01:55:27.431Z,4.67
2017-04-15T01:56:27.976Z,4.59
2017-04-15T01:57:28.488Z,4.55
2017-04-15T01:58:29.168Z,4.52
2017-04-15T01:59:29.553Z,4.48
2017-04-15T02:00:30.080Z,4.46
2017-04-15T02:01:30.609Z,4.44
2017-04-15T02:02:31.145Z,4.43
2017-04-15T02:03:31.676Z,4.44
2017-04-15T02:04:32.201Z,4.46
2017-04-15T02:05:32.733Z,4.44
2017-04-15T02:06:33.411Z,4.43
2017-04-15T02:07:33.797Z,4.47
2017-04-15T02:08:34.324Z,4.48
2017-04-15T02:09:34.854Z,4.57
2017-04-15T02:10:35.385Z,4.66
2017-04-15T02:11:35.915Z,4.74
2017-04-15T02:12:36.456Z,4.81
2017-04-15T02:13:37.141Z,4.85
2017-04-15T02:14:37.657Z,5.07
2017-04-15T02:15:38.043Z,5.16
2017-04-15T02:16:38.566Z,5.21
2017-04-15T02:17:39.095Z,5.29
2017-04-15T02:18:39.771Z,5.41
2017-04-15T02:19:40.164Z,5.48
2017-04-15T02:20:40.692Z,5.52
2017-04-15T02:21:41.215Z,5.52
2017-04-15T02:22:41.748Z,5.56
2017-04-15T02:23:42.278Z,5.66
2017-04-15T02:24:42.807Z,5.77
2017-04-15T02:25:43.336Z,5.79
2017-04-15T02:26:43.877Z,5.82
2017-04-15T02:27:44.400Z,5.89
2017-04-15T02:28:44.927Z,5.95
2017-04-15T02:29:45.458Z,5.93
2017-04-15T02:30:45.984Z,5.92
2017-04-15T02:31:46.518Z,5.99
2017-04-15T02:32:47.047Z,5.97
2017-04-15T02:33:47.586Z,5.97
2017-04-15T02:34:48.122Z,6.03
2017-04-15T02:35:48.652Z,6.04
2017-04-15T02:36:49.201Z,6.08
2017-04-15T02:37:49.714Z,6.09
2017-04-15T02:38:50.246Z,6.16
2017-04-15T02:39:50.775Z,6.19
2017-04-15T02:40:51.310Z,6.25
2017-04-15T02:41:51.840Z,6.26
2017-04-15T02:42:52.369Z,6.25
2017-04-15T02:43:52.907Z,6.26
2017-04-15T02:44:53.464Z,6.26
2017-04-15T02:45:53.967Z,6.26
2017-04-15T02:46:54.646Z,6.26
2017-04-15T02:47:55.026Z,6.26
2017-04-15T02:48:55.570Z,6.26
2017-04-15T02:49:56.087Z,6.27
2017-04-15T02:50:56.616Z,6.27
2017-04-15T02:51:57.144Z,6.27
2017-04-15T02:52:57.676Z,6.33
2017-04-15T02:53:58.207Z,6.33
2017-04-15T02:54:58.735Z,6.33
2017-04-15T02:55:59.266Z,6.31
2017-04-15T02:56:59.795Z,6.30
2017-04-15T02:58:00.329Z,6.34
2017-04-15T02:59:00.860Z,6.34
2017-04-15T03:00:01.391Z,6.34
2017-04-15T03:01:02.069Z,6.34
2017-04-15T03:02:02.460Z,6.36
2017-04-15T03:03:02.983Z,6.40
2017-04-15T03:04:03.518Z,6.41
2017-04-15T03:05:04.196Z,6.41
2017-04-15T03:06:04.576Z,6.43
2017-04-15T03:07:05.118Z,6.43
2017-04-15T03:08:05.642Z,6.44
2017-04-15T03:09:06.181Z,6.45
2017-04-15T03:10:06.702Z,6.44
2017-04-15T03:11:07.227Z,6.44
2017-04-15T03:12:07.906Z,6.45
2017-04-15T03:13:08.295Z,6.47
2017-04-15T03:14:08.823Z,6.47
2017-04-15T03:15:09.355Z,6.47
2017-04-15T03:16:09.888Z,6.47
2017-04-15T03:17:10.574Z,6.47
2017-04-15T03:18:10.956Z,6.48
2017-04-15T03:19:11.498Z,6.48
2017-04-15T03:20:12.030Z,6.48
2017-04-15T03:21:12.553Z,6.48
2017-04-15T03:22:13.082Z,6.51
2017-04-15T03:23:13.602Z,6.51
2017-04-15T03:24:14.141Z,6.55
2017-04-15T03:25:14.669Z,6.55
2017-04-15T03:26:15.196Z,6.52
2017-04-15T03:27:15.723Z,6.52
2017-04-15T03:28:16.253Z,6.52
2017-04-15T03:29:16.789Z,6.55
2017-04-15T03:30:17.316Z,6.55
2017-04-15T03:31:17.998Z,6.55
2017-04-15T03:32:18.382Z,6.56
2017-04-15T03:33:18.909Z,6.57
2017-04-15T03:34:19.443Z,6.61
2017-04-15T03:35:20.125Z,6.64
2017-04-15T03:36:20.502Z,6.68
2017-04-15T03:37:21.034Z,6.68
2017-04-15T03:38:21.568Z,6.70
2017-04-15T03:39:22.105Z,6.70
2017-04-15T03:40:22.625Z,6.71
2017-04-15T03:41:23.158Z,6.72
2017-04-15T03:42:23.683Z,6.75
2017-04-15T03:43:24.214Z,6.77
2017-04-15T03:44:24.893Z,6.78
2017-04-15T03:45:25.426Z,6.79
2017-04-15T03:46:25.808Z,6.84
2017-04-15T03:47:26.346Z,6.87
2017-04-15T03:48:26.868Z,6.90
2017-04-15T03:49:27.395Z,6.91
2017-04-15T03:50:28.114Z,6.93
2017-04-15T03:51:28.456Z,6.93
2017-04-15T03:52:29.133Z,6.94
2017-04-15T03:53:29.517Z,6.94
2017-04-15T03:54:30.053Z,6.95
2017-04-15T03:55:30.584Z,6.95
2017-04-15T03:56:31.124Z,6.95
2017-04-15T03:57:31.655Z,6.95
2017-04-15T03:58:32.190Z,6.97
2017-04-15T03:59:32.873Z,6.95
2017-04-15T04:00:33.258Z,6.95
2017-04-15T04:01:33.785Z,6.98
2017-04-15T04:02:34.313Z,6.97
2017-04-15T04:03:34.843Z,7.00
2017-04-15T04:04:35.375Z,7.01
2017-04-15T04:05:35.902Z,7.00
2017-04-15T04:06:36.444Z,7.01
2017-04-15T04:07:36.962Z,7.02
2017-04-15T04:08:37.495Z,7.02
2017-04-15T04:09:38.027Z,7.01
2017-04-15T04:10:38.550Z,7.02
2017-04-15T04:11:39.081Z,7.04
2017-04-15T04:12:39.615Z,7.04
2017-04-15T04:13:40.145Z,7.02
2017-04-15T04:14:40.673Z,7.02
2017-04-15T04:15:41.202Z,7.01
2017-04-15T04:16:41.885Z,7.01
2017-04-15T04:17:42.263Z,7.00
2017-04-15T04:18:42.802Z,6.98
2017-04-15T04:19:43.326Z,6.98
2017-04-15T04:20:43.860Z,6.95
2017-04-15T04:21:44.388Z,6.94
2017-04-15T04:22:44.921Z,6.94
2017-04-15T04:23:45.602Z,6.94
2017-04-15T04:24:45.980Z,6.97
2017-04-15T04:25:46.509Z,6.97
2017-04-15T04:26:47.037Z,6.97
2017-04-15T04:27:47.717Z,6.95
2017-04-15T04:28:48.097Z,6.93
2017-04-15T04:29:48.627Z,6.94
2017-04-15T04:30:49.157Z,6.91
2017-04-15T04:31:49.682Z,6.91
2017-04-15T04:32:50.216Z,6.91
2017-04-15T04:33:50.748Z,6.90
2017-04-15T04:34:51.282Z,6.89
2017-04-15T04:35:51.817Z,6.90
2017-04-15T04:36:52.345Z,6.90
2017-04-15T04:37:52.880Z,6.91
2017-04-15T04:38:53.417Z,6.93
2017-04-15T04:39:53.954Z,6.93
2017-04-15T04:40:54.484Z,6.93
2017-04-15T04:41:55.013Z,6.91
2017-04-15T04:42:55.544Z,6.90
2017-04-15T04:43:56.116Z,6.91
2017-04-15T04:44:56.610Z,6.89
2017-04-15T04:45:57.140Z,6.90
2017-04-15T04:46:57.672Z,6.93
2017-04-15T04:47:58.204Z,6.93
2017-04-15T04:48:58.737Z,6.95
2017-04-15T04:49:59.266Z,6.97
2017-04-15T04:50:59.799Z,6.98
2017-04-15T04:52:00.329Z,6.98
2017-04-15T04:53:00.864Z,7.00
2017-04-15T04:54:01.396Z,7.01
2017-04-15T04:55:01.930Z,7.01
2017-04-15T04:56:02.459Z,7.00
2017-04-15T04:57:02.985Z,7.00
2017-04-15T04:58:03.518Z,7.02
2017-04-15T04:59:04.045Z,7.04
2017-04-15T05:00:04.576Z,7.04
2017-04-15T05:01:05.109Z,7.05
2017-04-15T05:02:05.639Z,7.04
2017-04-15T05:03:06.171Z,7.02
2017-04-15T05:04:06.710Z,7.02
2017-04-15T05:05:07.237Z,7.05
2017-04-15T05:06:07.804Z,7.04
2017-04-15T05:07:08.297Z,7.05
2017-04-15T05:08:08.845Z,7.08
2017-04-15T05:09:09.362Z,7.08
2017-04-15T05:10:09.888Z,7.09
2017-04-15T05:11:10.429Z,7.09
2017-04-15T05:12:11.101Z,7.11
2017-04-15T05:13:11.484Z,7.11
2017-04-15T05:14:12.161Z,7.11
2017-04-15T05:15:12.544Z,7.13
2017-04-15T05:16:13.073Z,7.16
2017-04-15T05:17:13.613Z,7.18
2017-04-15T05:18:14.142Z,7.20
2017-04-15T05:19:14.676Z,7.22
2017-04-15T05:20:15.360Z,7.22
2017-04-15T05:21:15.744Z,7.22
2017-04-15T05:22:16.280Z,7.23
2017-04-15T05:23:16.954Z,7.23
2017-04-15T05:24:17.334Z,7.26
2017-04-15T05:25:18.013Z,7.26
2017-04-15T05:26:18.553Z,7.26
2017-04-15T05:27:18.932Z,7.26
2017-04-15T05:28:19.459Z,7.26
2017-04-15T05:29:19.997Z,7.27
2017-04-15T05:30:20.674Z,7.27
2017-04-15T05:31:21.056Z,7.29
2017-04-15T05:32:21.735Z,7.31
2017-04-15T05:33:22.120Z,7.33
2017-04-15T05:34:22.645Z,7.35
2017-04-15T05:35:23.177Z,7.37
2017-04-15T05:36:23.705Z,7.38
2017-04-15T05:37:24.234Z,7.40
2017-04-15T05:38:24.763Z,7.44
2017-04-15T05:39:25.294Z,7.51
2017-04-15T05:40:25.832Z,7.52
2017-04-15T05:41:26.355Z,7.53
2017-04-15T05:42:26.885Z,7.56
2017-04-15T05:43:27.419Z,7.58
2017-04-15T05:44:27.954Z,7.60
2017-04-15T05:45:28.478Z,7.64
2017-04-15T05:46:29.154Z,7.67
2017-04-15T05:47:29.536Z,7.72
2017-04-15T05:48:30.067Z,7.79
2017-04-15T05:49:30.601Z,7.85
2017-04-15T05:50:31.129Z,7.90
2017-04-15T05:51:31.660Z,7.93
2017-04-15T05:52:32.342Z,7.98
2017-04-15T05:53:32.727Z,8.01
2017-04-15T05:54:33.286Z,8.05
2017-04-15T05:55:33.785Z,8.11
2017-04-15T05:56:34.320Z,8.13
2017-04-15T05:57:34.844Z,8.20
2017-04-15T05:58:35.371Z,8.30
2017-04-15T05:59:35.908Z,8.39
2017-04-15T06:00:36.442Z,8.53
2017-04-15T06:01:36.975Z,8.64
2017-04-15T06:02:37.537Z,8.71
2017-04-15T06:03:38.039Z,8.76
2017-04-15T06:04:38.570Z,8.80
2017-04-15T06:05:39.099Z,8.85
2017-04-15T06:06:39.627Z,8.90
2017-04-15T06:07:40.158Z,8.94
2017-04-15T06:08:40.697Z,9.00
2017-04-15T06:09:41.219Z,9.05
2017-04-15T06:10:41.748Z,9.09
2017-04-15T06:11:42.424Z,9.13
2017-04-15T06:12:42.812Z,9.18
2017-04-15T06:13:43.344Z,9.23
2017-04-15T06:14:43.869Z,9.30
2017-04-15T06:15:44.402Z,9.36
2017-04-15T06:16:44.930Z,9.43
2017-04-15T06:17:45.464Z,9.51
2017-04-15T06:18:45.995Z,9.55
2017-04-15T06:19:46.530Z,9.61
2017-04-15T06:20:47.055Z,9.65
2017-04-15T06:21:47.590Z,9.69
2017-04-15T06:22:48.121Z,9.72
2017-04-15T06:23:48.649Z,9.73
2017-04-15T06:24:49.328Z,9.75
2017-04-15T06:25:49.711Z,9.79
2017-04-15T06:26:50.241Z,9.82
2017-04-15T06:27:50.771Z,9.84
2017-04-15T06:28:51.299Z,9.89
2017-04-15T06:29:51.833Z,9.93
2017-04-15T06:30:52.360Z,9.95
2017-04-15T06:31:52.893Z,9.98
2017-04-15T06:32:53.427Z,10.01
2017-04-15T06:33:53.960Z,10.04
2017-04-15T06:34:54.489Z,10.06
2017-04-15T06:35:55.015Z,10.09
2017-04-15T06:36:55.546Z,10.11
2017-04-15T06:37:56.077Z,10.13
2017-04-15T06:38:56.609Z,10.13
2017-04-15T06:39:57.141Z,10.13
2017-04-15T06:40:57.823Z,10.16
2017-04-15T06:41:58.232Z,10.20
2017-04-15T06:42:58.895Z,10.17
2017-04-15T06:43:59.424Z,10.18
2017-04-15T06:44:59.959Z,10.21
2017-04-15T06:46:00.489Z,10.20
2017-04-15T06:47:01.020Z,10.21
2017-04-15T06:48:01.548Z,10.25
2017-04-15T06:49:01.934Z,10.30
2017-04-15T06:50:02.465Z,10.31
2017-04-15T06:51:02.997Z,10.36
2017-04-15T06:52:03.521Z,10.43
2017-04-15T06:53:04.061Z,10.50
2017-04-15T06:54:04.583Z,10.47
2017-04-15T06:55:05.109Z,10.49
2017-04-15T06:56:05.635Z,10.49
2017-04-15T06:57:06.188Z,10.50
2017-04-15T06:58:06.700Z,10.53
2017-04-15T06:59:07.241Z,10.47
2017-04-15T07:00:07.763Z,10.45
2017-04-15T07:01:08.294Z,10.45
2017-04-15T07:02:08.828Z,10.45
2017-04-15T07:03:09.361Z,10.50
2017-04-15T07:04:09.889Z,10.52
2017-04-15T07:05:10.567Z,10.46
2017-04-15T07:06:10.950Z,10.45
2017-04-15T07:07:11.478Z,10.42
2017-04-15T07:08:12.008Z,10.43
2017-04-15T07:09:12.538Z,10.43
2017-04-15T07:10:13.066Z,10.38
2017-04-15T07:11:13.602Z,10.34
2017-04-15T07:12:14.131Z,10.32
2017-04-15T07:13:14.659Z,10.34
2017-04-15T07:14:15.191Z,10.39
2017-04-15T07:15:15.735Z,10.42
2017-04-15T07:16:16.249Z,10.42
2017-04-15T07:17:16.926Z,10.47
2017-04-15T07:18:17.307Z,10.50
2017-04-15T07:19:17.844Z,10.54
2017-04-15T07:20:18.374Z,10.53
2017-04-15T07:21:19.045Z,10.57
2017-04-15T07:22:19.433Z,10.53
2017-04-15T07:23:20.115Z,10.53
2017-04-15T07:24:20.503Z,10.54
2017-04-15T07:25:21.034Z,10.49
2017-04-15T07:26:21.574Z,10.47
2017-04-15T07:27:22.102Z,10.46
2017-04-15T07:28:22.635Z,10.50
2017-04-15T07:29:23.315Z,10.53
2017-04-15T07:30:23.699Z,10.54
2017-04-15T07:31:24.230Z,10.53
2017-04-15T07:32:24.903Z,10.54
2017-04-15T07:33:25.287Z,10.57
2017-04-15T07:34:25.961Z,10.56
2017-04-15T07:35:26.492Z,10.54
2017-04-15T07:36:26.875Z,10.56
2017-04-15T07:37:27.550Z,10.54
2017-04-15T07:38:27.938Z,10.56
2017-04-15T07:39:28.465Z,10.57
2017-04-15T07:40:28.992Z,10.58
2017-04-15T07:41:29.522Z,10.60
2017-04-15T07:42:30.062Z,10.56
2017-04-15T07:43:30.583Z,10.52
2017-04-15T07:44:31.113Z,10.46
2017-04-15T07:45:31.641Z,10.46
2017-04-15T07:46:32.171Z,10.46
2017-04-15T07:47:32.698Z,10.43
2017-04-15T07:48:33.228Z,10.42
2017-04-15T07:49:33.760Z,10.39
2017-04-15T07:50:34.292Z,10.42
2017-04-15T07:51:34.971Z,10.42
2017-04-15T07:52:35.353Z,10.45
2017-04-15T07:53:36.032Z,10.46
2017-04-15T07:54:36.410Z,10.42
2017-04-15T07:55:36.943Z,10.43
2017-04-15T07:56:37.477Z,10.45
2017-04-15T07:57:38.013Z,10.41
2017-04-15T07:58:38.530Z,10.42
2017-04-15T07:59:39.063Z,10.46
2017-04-15T08:00:39.595Z,10.42
2017-04-15T08:01:40.270Z,10.41
2017-04-15T08:02:40.652Z,10.36
2017-04-15T08:03:41.181Z,10.32
2017-04-15T08:04:41.714Z,10.31
2017-04-15T08:05:42.399Z,10.30
2017-04-15T08:06:42.935Z,10.31
2017-04-15T08:07:43.317Z,10.31
2017-04-15T08:08:43.850Z,10.25
2017-04-15T08:09:44.377Z,10.27
2017-04-15T08:10:44.915Z,10.25
2017-04-15T08:11:45.447Z,10.21
2017-04-15T08:12:45.980Z,10.18
2017-04-15T08:13:46.507Z,10.18
2017-04-15T08:14:47.040Z,10.17
2017-04-15T08:15:47.564Z,10.09
2017-04-15T08:16:48.097Z,10.06
2017-04-15T08:17:48.628Z,10.06
2017-04-15T08:18:49.158Z,10.01
2017-04-15T08:19:49.684Z,9.97
2017-04-15T08:20:50.217Z,10.05
2017-04-15T08:21:50.897Z,10.05
2017-04-15T08:22:51.280Z,10.02
2017-04-15T08:23:51.960Z,10.02
2017-04-15T08:24:52.340Z,10.00
2017-04-15T08:25:52.871Z,10.04
2017-04-15T08:26:53.402Z,10.01
2017-04-15T08:27:54.083Z,9.98
2017-04-15T08:28:54.465Z,10.00
2017-04-15T08:29:54.999Z,10.02
2017-04-15T08:30:55.532Z,10.05
2017-04-15T08:31:56.060Z,10.05
2017-04-15T08:32:56.595Z,10.00
2017-04-15T08:34:57.651Z,9.97
2017-04-15T08:35:58.180Z,10.00
2017-04-15T08:36:58.717Z,9.98
2017-04-15T08:37:59.240Z,10.00
2017-04-15T08:38:59.774Z,9.98
2017-04-15T08:40:00.299Z,10.00
2017-04-15T08:41:00.832Z,10.01
2017-04-15T08:42:01.363Z,10.00
2017-04-15T08:43:01.890Z,10.09
2017-04-15T08:44:02.413Z,10.18
2017-04-15T08:45:02.949Z,10.25
2017-04-15T08:46:03.482Z,10.18
2017-04-15T08:47:04.024Z,10.16
2017-04-15T08:48:04.704Z,10.14
2017-04-15T08:49:05.091Z,10.09
2017-04-15T08:50:05.632Z,10.08
2017-04-15T08:51:06.150Z,10.16
2017-04-15T08:52:06.677Z,10.18
2017-04-15T08:53:07.207Z,10.13
2017-04-15T08:54:07.737Z,10.05
2017-04-15T08:55:08.268Z,10.06
2017-04-15T08:56:08.800Z,10.06
2017-04-15T08:57:09.327Z,10.00
2017-04-15T08:58:09.861Z,9.98
2017-04-15T08:59:10.387Z,9.95
2017-04-15T09:00:11.070Z,9.87
2017-04-15T09:01:11.446Z,9.89
2017-04-15T09:02:11.977Z,9.86
2017-04-15T09:03:12.534Z,9.87
2017-04-15T09:04:13.186Z,9.87
2017-04-15T09:05:13.572Z,9.87
2017-04-15T09:06:14.103Z,9.86
2017-04-15T09:07:14.635Z,9.82
2017-04-15T09:08:15.310Z,9.80
2017-04-15T09:09:15.695Z,9.83
2017-04-15T09:10:16.223Z,9.82
2017-04-15T09:11:16.756Z,9.79
2017-04-15T09:12:17.323Z,9.78
2017-04-15T09:13:17.817Z,9.75
2017-04-15T09:14:18.350Z,9.72
2017-04-15T09:15:18.883Z,9.72
2017-04-15T09:16:19.559Z,9.71
2017-04-15T09:17:19.947Z,9.68
2017-04-15T09:18:20.471Z,9.62
2017-04-15T09:19:21.006Z,9.64
2017-04-15T09:20:21.552Z,9.64
2017-04-15T09:21:22.071Z,9.64
2017-04-15T09:22:22.594Z,9.58
2017-04-15T09:23:23.128Z,9.53
2017-04-15T09:24:23.668Z,9.50
2017-04-15T09:25:24.340Z,9.47
2017-04-15T09:26:24.723Z,9.42
2017-04-15T09:27:25.257Z,9.38
2017-04-15T09:28:25.939Z,9.38
2017-04-15T09:29:26.321Z,9.34
2017-04-15T09:30:26.861Z,9.34
2017-04-15T09:31:27.390Z,9.34
2017-04-15T09:32:27.952Z,9.38
2017-04-15T09:33:28.446Z,9.38
2017-04-15T09:34:28.977Z,9.39
2017-04-15T09:35:29.508Z,9.39
2017-04-15T09:36:30.035Z,9.38
2017-04-15T09:37:30.568Z,9.34
2017-04-15T09:38:31.099Z,9.39
2017-04-15T09:39:31.627Z,9.42
2017-04-15T09:40:32.151Z,9.42
2017-04-15T09:41:32.684Z,9.43
2017-04-15T09:42:33.212Z,9.40
2017-04-15T09:43:33.744Z,9.42
2017-04-15T09:44:34.424Z,9.39
2017-04-15T09:45:34.957Z,9.40
2017-04-15T09:46:35.344Z,9.44
2017-04-15T09:47:35.869Z,9.46
2017-04-15T09:48:36.396Z,9.49
2017-04-15T09:49:36.925Z,9.46
2017-04-15T09:50:37.603Z,9.44
2017-04-15T09:51:37.996Z,9.42
2017-04-15T09:52:38.520Z,9.43
2017-04-15T09:53:39.051Z,9.46
2017-04-15T09:54:39.578Z,9.46
2017-04-15T09:55:40.111Z,9.42
2017-04-15T09:56:40.637Z,9.39
2017-04-15T09:57:41.176Z,9.40
2017-04-15T09:58:41.851Z,9.36
2017-04-15T09:59:42.232Z,9.34
2017-04-15T10:00:42.762Z,9.34
2017-04-15T10:01:43.293Z,9.34
2017-04-15T10:02:43.972Z,9.34
2017-04-15T10:03:44.359Z,9.34
2017-04-15T10:04:44.918Z,9.34
2017-04-15T10:05:45.414Z,9.34
2017-04-15T10:06:45.949Z,9.32
2017-04-15T10:07:46.481Z,9.36
2017-04-15T10:08:47.014Z,9.39
2017-04-15T10:09:47.549Z,9.38
2017-04-15T10:10:48.080Z,9.42
2017-04-15T10:11:48.616Z,9.44
2017-04-15T10:12:49.154Z,9.50
2017-04-15T10:13:49.681Z,9.54
2017-04-15T10:14:50.212Z,9.60
2017-04-15T10:15:50.748Z,9.65
2017-04-15T10:16:51.278Z,9.69
2017-04-15T10:17:51.809Z,9.71
2017-04-15T10:18:52.342Z,9.75
2017-04-15T10:19:52.870Z,9.78
2017-04-15T10:20:53.396Z,9.79
2017-04-15T10:21:53.929Z,9.80
2017-04-15T10:22:54.457Z,9.80
2017-04-15T10:23:55.133Z,9.82
2017-04-15T10:24:55.522Z,9.86
2017-04-15T10:25:56.190Z,9.89
2017-04-15T10:26:56.726Z,9.90
2017-04-15T10:27:57.110Z,9.93
2017-04-15T10:28:57.636Z,9.97
2017-04-15T10:29:58.169Z,10.01
2017-04-15T10:30:58.846Z,10.06
2017-04-15T10:31:59.374Z,10.11
2017-04-15T10:32:59.909Z,10.09
2017-04-15T10:34:00.289Z,10.14
2017-04-15T10:35:00.816Z,10.20
2017-04-15T10:36:01.348Z,10.23
2017-04-15T10:37:01.879Z,10.23
2017-04-15T10:38:02.412Z,10.25
2017-04-15T10:39:02.944Z,10.25
2017-04-15T10:40:03.473Z,10.25
2017-04-15T10:41:04.001Z,10.31
2017-04-15T10:42:04.532Z,10.36
2017-04-15T10:43:05.059Z,10.35
2017-04-15T10:44:05.590Z,10.39
2017-04-15T10:45:06.130Z,10.38
2017-04-15T10:46:06.664Z,10.32
2017-04-15T10:47:07.181Z,10.31
2017-04-15T10:48:07.716Z,10.38
2017-04-15T10:49:08.242Z,10.39
2017-04-15T10:50:08.776Z,10.31
2017-04-15T10:51:09.345Z,10.20
2017-04-15T10:52:09.849Z,10.16
2017-04-15T10:53:10.382Z,10.16
2017-04-15T10:54:10.911Z,10.17
2017-04-15T10:55:11.443Z,10.16
2017-04-15T10:56:12.123Z,10.14
2017-04-15T10:57:12.502Z,10.20
2017-04-15T10:58:13.041Z,10.17
2017-04-15T10:59:13.569Z,10.20
2017-04-15T11:00:14.106Z,10.16
2017-04-15T11:01:14.636Z,10.20
2017-04-15T11:02:15.167Z,10.20
2017-04-15T11:03:15.693Z,10.21
2017-04-15T11:04:16.227Z,10.24
2017-04-15T11:05:16.752Z,10.32
2017-04-15T11:06:17.283Z,10.39
2017-04-15T11:07:17.815Z,10.42
2017-04-15T11:08:18.351Z,10.50
2017-04-15T11:09:18.882Z,10.60
2017-04-15T11:10:19.413Z,10.63
2017-04-15T11:11:19.944Z,10.68
2017-04-15T11:12:20.477Z,10.60
2017-04-15T11:13:21.008Z,10.58
2017-04-15T11:14:21.538Z,10.47
2017-04-15T11:15:22.064Z,10.43
2017-04-15T11:16:22.600Z,10.43
2017-04-15T11:17:23.124Z,10.39
2017-04-15T11:18:23.804Z,10.34
2017-04-15T11:19:24.187Z,10.27
2017-04-15T11:20:24.721Z,10.24
2017-04-15T11:21:25.253Z,10.24
2017-04-15T11:22:25.789Z,10.24
2017-04-15T11:23:26.468Z,10.25
2017-04-15T11:24:26.852Z,10.24
2017-04-15T11:25:27.410Z,10.23
2017-04-15T11:26:27.912Z,10.21
2017-04-15T11:27:28.589Z,10.21
2017-04-15T11:28:28.971Z,10.17
2017-04-15T11:29:29.503Z,10.09
2017-04-15T11:30:30.034Z,10.05
2017-04-15T11:31:30.567Z,10.01
2017-04-15T11:32:31.248Z,9.94
2017-04-15T11:33:31.643Z,9.95
2017-04-15T11:34:32.166Z,9.97
2017-04-15T11:35:32.702Z,9.98
2017-04-15T11:36:33.234Z,9.95
2017-04-15T11:37:33.764Z,9.93
2017-04-15T11:38:34.300Z,9.90
2017-04-15T11:39:34.853Z,9.87
2017-04-15T11:40:35.362Z,9.89
2017-04-15T11:41:36.037Z,9.86
2017-04-15T11:42:36.423Z,9.80
2017-04-15T11:43:36.951Z,9.76
2017-04-15T11:44:37.481Z,9.73
2017-04-15T11:45:38.011Z,9.66
2017-04-15T11:46:38.546Z,9.61
2017-04-15T11:47:39.073Z,9.57
2017-04-15T11:48:39.601Z,9.49
2017-04-15T11:49:40.131Z,9.51
2017-04-15T11:50:40.666Z,9.44
2017-04-15T11:51:41.195Z,9.40
2017-04-15T11:52:41.728Z,9.32
2017-04-15T11:53:42.256Z,9.22
2017-04-15T11:54:42.784Z,9.18
2017-04-15T11:55:43.468Z,9.15
2017-04-15T11:56:43.848Z,9.12
2017-04-15T11:57:44.376Z,9.12
2017-04-15T11:58:44.908Z,9.08
2017-04-15T11:59:45.435Z,9.08
2017-04-15T12:00:45.968Z,9.07
2017-04-15T12:01:46.500Z,9.08
2017-04-15T12:02:47.028Z,9.09
2017-04-15T12:03:47.560Z,9.09
2017-04-15T12:04:48.092Z,9.09
2017-04-15T12:05:48.624Z,9.11
2017-04-15T12:06:49.176Z,9.11
2017-04-15T12:07:49.686Z,9.09
2017-04-15T12:08:50.216Z,9.09
2017-04-15T12:09:50.746Z,9.15
2017-04-15T12:10:51.278Z,9.15
2017-04-15T12:11:51.962Z,9.18
2017-04-15T12:12:52.351Z,9.25
2017-04-15T12:13:52.878Z,9.27
2017-04-15T12:14:53.413Z,9.31
2017-04-15T12:15:53.948Z,9.38
2017-04-15T12:16:54.478Z,9.31
2017-04-15T12:17:55.002Z,9.30
2017-04-15T12:18:55.535Z,9.28
2017-04-15T12:19:56.213Z,9.27
2017-04-15T12:20:56.599Z,9.23
2017-04-15T12:21:57.129Z,9.22
2017-04-15T12:22:57.661Z,9.23
2017-04-15T12:23:58.186Z,9.22
2017-04-15T12:24:58.722Z,9.20
2017-04-15T12:25:59.249Z,9.22
2017-04-15T12:26:59.780Z,9.22
2017-04-15T12:28:00.327Z,9.22
2017-04-15T12:29:00.985Z,9.22
2017-04-15T12:30:01.368Z,9.19
2017-04-15T12:31:01.901Z,9.18
2017-04-15T12:32:02.432Z,9.16
2017-04-15T12:33:02.968Z,9.15
2017-04-15T12:34:03.498Z,9.15
2017-04-15T12:35:04.024Z,9.18
2017-04-15T12:36:04.560Z,9.18
2017-04-15T12:37:05.089Z,9.18
2017-04-15T12:38:05.769Z,9.18
2017-04-15T12:39:06.158Z,9.15
2017-04-15T12:40:06.676Z,9.15
2017-04-15T12:41:07.207Z,9.13
2017-04-15T12:42:07.783Z,9.16
2017-04-15T12:43:08.270Z,9.16
2017-04-15T12:44:08.803Z,9.15
2017-04-15T12:45:09.332Z,9.18
2017-04-15T12:46:09.859Z,9.19
2017-04-15T12:47:10.396Z,9.19
2017-04-15T12:48:11.071Z,9.18
2017-04-15T12:49:11.452Z,9.16
2017-04-15T12:50:11.990Z,9.16
2017-04-15T12:51:12.524Z,9.16
2017-04-15T12:52:13.044Z,9.16
2017-04-15T12:53:13.582Z,9.19
2017-04-15T12:54:14.115Z,9.20
2017-04-15T12:55:14.657Z,9.19
2017-04-15T12:56:15.182Z,9.20
2017-04-15T12:57:15.718Z,9.23
2017-04-15T12:58:16.248Z,9.23
2017-04-15T12:59:16.808Z,9.22
2017-04-15T13:00:17.319Z,9.23
2017-04-15T13:01:17.851Z,9.25
2017-04-15T13:02:18.389Z,9.25
2017-04-15T13:03:18.909Z,9.27
2017-04-15T13:04:19.445Z,9.27
2017-04-15T13:05:19.977Z,9.28
2017-04-15T13:06:20.516Z,9.27
2017-04-15T13:07:21.031Z,9.30
2017-04-15T13:08:21.582Z,9.25
2017-04-15T13:09:22.093Z,9.23
2017-04-15T13:10:22.621Z,9.27
2017-04-15T13:11:23.152Z,9.28
2017-04-15T13:12:23.691Z,9.28
2017-04-15T13:13:24.211Z,9.28
2017-04-15T13:14:24.743Z,9.27
2017-04-15T13:15:25.274Z,9.28
2017-04-15T13:16:25.806Z,9.28
2017-04-15T13:17:26.337Z,9.27
2017-04-15T13:18:26.874Z,9.28
2017-04-15T13:19:27.400Z,9.31